sensor_id;sensor_type;location;lat;lon;timestamp;P1;durP1;ratioP1;P2;durP2;ratioP2
31764;SDS011;18338;53.240;8.798;2022-07-05T00:01:32;2.80;;;2.30;;
31764;SDS011;18338;53.240;8.798;2022-07-05T00:03:59;3.63;;;2.10;;
31764;SDS011;18338;53.240;8.798;2022-07-05T00:06:26;4.90;;;2.50;;
31764;SDS011;18338;53.240;8.798;2022-07-05T00:08:53;4.57;;;2.80;;
31764;SDS011;18338;53.240;8.798;2022-07-05T00:11:20;3.28;;;2.78;;
31764;SDS011;18338;53.240;8.798;2022-07-05T00:13:46;3.22;;;2.90;;
31764;SDS011;18338;53.240;8.798;2022-07-05T00:16:13;3.53;;;2.92;;
31764;SDS011;18338;53.240;8.798;2022-07-05T00:18:40;3.28;;;2.42;;
31764;SDS011;18338;53.240;8.798;2022-07-05T00:21:07;3.20;;;2.47;;
31764;SDS011;18338;53.240;8.798;2022-07-05T00:23:35;4.72;;;2.97;;
31764;SDS011;18338;53.240;8.798;2022-07-05T00:26:01;3.55;;;3.00;;
31764;SDS011;18338;53.240;8.798;2022-07-05T00:28:28;5.82;;;3.20;;
31764;SDS011;18338;53.240;8.798;2022-07-05T00:30:54;4.15;;;3.13;;
31764;SDS011;18338;53.240;8.798;2022-07-05T00:33:22;7.22;;;3.15;;
31764;SDS011;18338;53.240;8.798;2022-07-05T00:35:49;3.95;;;2.97;;
31764;SDS011;18338;53.240;8.798;2022-07-05T00:38:15;3.92;;;3.63;;
31764;SDS011;18338;53.240;8.798;2022-07-05T00:40:42;4.43;;;2.40;;
31764;SDS011;18338;53.240;8.798;2022-07-05T00:43:09;3.17;;;2.85;;
31764;SDS011;18338;53.240;8.798;2022-07-05T00:45:37;4.78;;;3.00;;
31764;SDS011;18338;53.240;8.798;2022-07-05T00:48:04;4.38;;;3.13;;
31764;SDS011;18338;53.240;8.798;2022-07-05T00:50:32;5.53;;;3.22;;
31764;SDS011;18338;53.240;8.798;2022-07-05T00:53:01;7.03;;;4.00;;
31764;SDS011;18338;53.240;8.798;2022-07-05T00:55:27;5.18;;;3.75;;
31764;SDS011;18338;53.240;8.798;2022-07-05T00:57:54;5.65;;;4.35;;
31764;SDS011;18338;53.240;8.798;2022-07-05T01:00:21;4.65;;;4.25;;
31764;SDS011;18338;53.240;8.798;2022-07-05T01:02:50;6.28;;;3.88;;
31764;SDS011;18338;53.240;8.798;2022-07-05T01:05:17;7.28;;;3.78;;
31764;SDS011;18338;53.240;8.798;2022-07-05T01:07:46;5.28;;;3.63;;
31764;SDS011;18338;53.240;8.798;2022-07-05T01:10:13;4.65;;;4.22;;
31764;SDS011;18338;53.240;8.798;2022-07-05T01:12:40;6.25;;;3.90;;
31764;SDS011;18338;53.240;8.798;2022-07-05T01:15:07;6.78;;;4.45;;
31764;SDS011;18338;53.240;8.798;2022-07-05T01:17:35;6.53;;;4.10;;
31764;SDS011;18338;53.240;8.798;2022-07-05T01:20:04;5.13;;;4.63;;
31764;SDS011;18338;53.240;8.798;2022-07-05T01:22:38;6.35;;;4.88;;
31764;SDS011;18338;53.240;8.798;2022-07-05T01:25:23;5.35;;;4.85;;
31764;SDS011;18338;53.240;8.798;2022-07-05T01:27:51;6.97;;;5.25;;
31764;SDS011;18338;53.240;8.798;2022-07-05T01:30:19;6.47;;;5.75;;
31764;SDS011;18338;53.240;8.798;2022-07-05T01:32:46;6.60;;;5.78;;
31764;SDS011;18338;53.240;8.798;2022-07-05T01:35:13;6.38;;;5.78;;
31764;SDS011;18338;53.240;8.798;2022-07-05T01:37:47;7.57;;;5.80;;
31764;SDS011;18338;53.240;8.798;2022-07-05T01:40:14;7.80;;;6.40;;
31764;SDS011;18338;53.240;8.798;2022-07-05T01:42:43;6.95;;;6.25;;
31764;SDS011;18338;53.240;8.798;2022-07-05T01:45:12;6.88;;;6.10;;
31764;SDS011;18338;53.240;8.798;2022-07-05T01:48:00;6.75;;;5.85;;
31764;SDS011;18338;53.240;8.798;2022-07-05T01:50:29;10.15;;;6.47;;
31764;SDS011;18338;53.240;8.798;2022-07-05T01:53:00;7.43;;;6.57;;
31764;SDS011;18338;53.240;8.798;2022-07-05T01:55:29;7.20;;;6.50;;
31764;SDS011;18338;53.240;8.798;2022-07-05T01:57:56;8.23;;;6.40;;
31764;SDS011;18338;53.240;8.798;2022-07-05T02:00:23;7.47;;;6.38;;
31764;SDS011;18338;53.240;8.798;2022-07-05T02:02:50;9.05;;;6.35;;
31764;SDS011;18338;53.240;8.798;2022-07-05T02:05:18;7.03;;;6.32;;
31764;SDS011;18338;53.240;8.798;2022-07-05T02:07:48;6.97;;;5.60;;
31764;SDS011;18338;53.240;8.798;2022-07-05T02:10:17;6.88;;;6.15;;
31764;SDS011;18338;53.240;8.798;2022-07-05T02:12:44;5.93;;;5.28;;
31764;SDS011;18338;53.240;8.798;2022-07-05T02:15:11;6.60;;;5.55;;
31764;SDS011;18338;53.240;8.798;2022-07-05T02:17:38;7.63;;;5.40;;
31764;SDS011;18338;53.240;8.798;2022-07-05T02:20:05;6.65;;;5.30;;
31764;SDS011;18338;53.240;8.798;2022-07-05T02:22:33;7.05;;;5.32;;
31764;SDS011;18338;53.240;8.798;2022-07-05T02:25:00;6.18;;;5.57;;
31764;SDS011;18338;53.240;8.798;2022-07-05T02:27:26;7.68;;;5.90;;
31764;SDS011;18338;53.240;8.798;2022-07-05T02:29:53;8.85;;;5.72;;
31764;SDS011;18338;53.240;8.798;2022-07-05T02:32:20;8.40;;;6.50;;
31764;SDS011;18338;53.240;8.798;2022-07-05T02:34:47;7.45;;;6.68;;
31764;SDS011;18338;53.240;8.798;2022-07-05T02:37:14;6.72;;;6.13;;
31764;SDS011;18338;53.240;8.798;2022-07-05T02:39:40;8.18;;;6.57;;
31764;SDS011;18338;53.240;8.798;2022-07-05T02:42:08;10.25;;;6.20;;
31764;SDS011;18338;53.240;8.798;2022-07-05T02:44:35;7.28;;;6.53;;
31764;SDS011;18338;53.240;8.798;2022-07-05T02:47:03;7.68;;;6.20;;
31764;SDS011;18338;53.240;8.798;2022-07-05T02:49:30;7.25;;;6.45;;
31764;SDS011;18338;53.240;8.798;2022-07-05T02:51:56;6.75;;;6.05;;
31764;SDS011;18338;53.240;8.798;2022-07-05T02:54:23;7.28;;;5.80;;
31764;SDS011;18338;53.240;8.798;2022-07-05T02:56:51;6.15;;;5.55;;
31764;SDS011;18338;53.240;8.798;2022-07-05T02:59:17;7.15;;;6.45;;
31764;SDS011;18338;53.240;8.798;2022-07-05T03:01:44;8.75;;;6.07;;
31764;SDS011;18338;53.240;8.798;2022-07-05T03:04:11;6.30;;;5.70;;
31764;SDS011;18338;53.240;8.798;2022-07-05T03:06:38;7.20;;;6.20;;
31764;SDS011;18338;53.240;8.798;2022-07-05T03:09:05;8.75;;;6.53;;
31764;SDS011;18338;53.240;8.798;2022-07-05T03:11:32;9.45;;;7.32;;
31764;SDS011;18338;53.240;8.798;2022-07-05T03:13:58;7.43;;;6.80;;
31764;SDS011;18338;53.240;8.798;2022-07-05T03:16:25;8.10;;;7.30;;
31764;SDS011;18338;53.240;8.798;2022-07-05T03:18:52;7.63;;;6.85;;
31764;SDS011;18338;53.240;8.798;2022-07-05T03:21:19;8.48;;;7.57;;
31764;SDS011;18338;53.240;8.798;2022-07-05T03:23:46;8.90;;;7.63;;
31764;SDS011;18338;53.240;8.798;2022-07-05T03:26:14;8.63;;;7.82;;
31764;SDS011;18338;53.240;8.798;2022-07-05T03:28:40;9.13;;;7.53;;
31764;SDS011;18338;53.240;8.798;2022-07-05T03:31:07;9.73;;;7.72;;
31764;SDS011;18338;53.240;8.798;2022-07-05T03:33:34;9.00;;;8.07;;
31764;SDS011;18338;53.240;8.798;2022-07-05T03:36:01;10.60;;;7.55;;
31764;SDS011;18338;53.240;8.798;2022-07-05T03:38:28;9.38;;;7.72;;
31764;SDS011;18338;53.240;8.798;2022-07-05T03:40:55;10.52;;;8.38;;
31764;SDS011;18338;53.240;8.798;2022-07-05T03:43:23;9.60;;;7.75;;
31764;SDS011;18338;53.240;8.798;2022-07-05T03:45:50;8.00;;;7.28;;
31764;SDS011;18338;53.240;8.798;2022-07-05T03:48:17;9.82;;;8.00;;
31764;SDS011;18338;53.240;8.798;2022-07-05T03:51:04;8.60;;;7.55;;
31764;SDS011;18338;53.240;8.798;2022-07-05T03:53:31;8.18;;;7.22;;
31764;SDS011;18338;53.240;8.798;2022-07-05T03:55:58;9.48;;;7.38;;
31764;SDS011;18338;53.240;8.798;2022-07-05T03:58:25;9.82;;;7.43;;
31764;SDS011;18338;53.240;8.798;2022-07-05T04:00:51;7.63;;;6.85;;
31764;SDS011;18338;53.240;8.798;2022-07-05T04:03:18;8.13;;;6.93;;
31764;SDS011;18338;53.240;8.798;2022-07-05T04:05:45;7.40;;;6.70;;
31764;SDS011;18338;53.240;8.798;2022-07-05T04:08:12;7.25;;;6.57;;
31764;SDS011;18338;53.240;8.798;2022-07-05T04:10:39;8.10;;;6.95;;
31764;SDS011;18338;53.240;8.798;2022-07-05T04:13:06;7.15;;;6.15;;
31764;SDS011;18338;53.240;8.798;2022-07-05T04:15:32;7.47;;;6.07;;
31764;SDS011;18338;53.240;8.798;2022-07-05T04:18:00;6.78;;;5.90;;
31764;SDS011;18338;53.240;8.798;2022-07-05T04:20:27;6.95;;;6.20;;
31764;SDS011;18338;53.240;8.798;2022-07-05T04:22:54;6.93;;;6.22;;
31764;SDS011;18338;53.240;8.798;2022-07-05T04:25:23;7.88;;;5.85;;
31764;SDS011;18338;53.240;8.798;2022-07-05T04:27:51;6.95;;;5.57;;
31764;SDS011;18338;53.240;8.798;2022-07-05T04:30:23;5.60;;;5.03;;
31764;SDS011;18338;53.240;8.798;2022-07-05T04:32:51;5.63;;;4.88;;
31764;SDS011;18338;53.240;8.798;2022-07-05T04:35:18;5.28;;;4.47;;
31764;SDS011;18338;53.240;8.798;2022-07-05T04:37:45;5.07;;;4.60;;
31764;SDS011;18338;53.240;8.798;2022-07-05T04:40:12;6.07;;;4.32;;
31764;SDS011;18338;53.240;8.798;2022-07-05T04:42:39;4.60;;;4.20;;
31764;SDS011;18338;53.240;8.798;2022-07-05T04:45:07;4.53;;;3.53;;
31764;SDS011;18338;53.240;8.798;2022-07-05T04:47:35;5.18;;;4.10;;
31764;SDS011;18338;53.240;8.798;2022-07-05T04:50:03;5.25;;;3.90;;
31764;SDS011;18338;53.240;8.798;2022-07-05T04:52:30;4.00;;;3.63;;
31764;SDS011;18338;53.240;8.798;2022-07-05T04:54:57;4.30;;;3.58;;
31764;SDS011;18338;53.240;8.798;2022-07-05T04:57:24;4.30;;;3.72;;
31764;SDS011;18338;53.240;8.798;2022-07-05T04:59:52;4.03;;;3.47;;
31764;SDS011;18338;53.240;8.798;2022-07-05T05:02:18;4.40;;;3.88;;
31764;SDS011;18338;53.240;8.798;2022-07-05T05:04:45;3.63;;;3.25;;
31764;SDS011;18338;53.240;8.798;2022-07-05T05:07:12;3.72;;;3.35;;
31764;SDS011;18338;53.240;8.798;2022-07-05T05:09:39;6.05;;;3.78;;
31764;SDS011;18338;53.240;8.798;2022-07-05T05:12:05;3.55;;;2.97;;
31764;SDS011;18338;53.240;8.798;2022-07-05T05:14:32;5.32;;;3.00;;
31764;SDS011;18338;53.240;8.798;2022-07-05T05:16:59;3.85;;;2.90;;
31764;SDS011;18338;53.240;8.798;2022-07-05T05:19:26;4.28;;;3.15;;
31764;SDS011;18338;53.240;8.798;2022-07-05T05:21:53;3.60;;;2.97;;
31764;SDS011;18338;53.240;8.798;2022-07-05T05:24:20;3.45;;;2.67;;
31764;SDS011;18338;53.240;8.798;2022-07-05T05:26:47;4.07;;;2.53;;
31764;SDS011;18338;53.240;8.798;2022-07-05T05:29:13;6.43;;;2.90;;
31764;SDS011;18338;53.240;8.798;2022-07-05T05:31:41;5.72;;;2.88;;
31764;SDS011;18338;53.240;8.798;2022-07-05T05:34:07;3.90;;;2.67;;
31764;SDS011;18338;53.240;8.798;2022-07-05T05:36:34;7.07;;;2.70;;
31764;SDS011;18338;53.240;8.798;2022-07-05T05:39:01;2.90;;;2.45;;
31764;SDS011;18338;53.240;8.798;2022-07-05T05:41:27;4.05;;;2.60;;
31764;SDS011;18338;53.240;8.798;2022-07-05T05:43:54;3.97;;;2.78;;
31764;SDS011;18338;53.240;8.798;2022-07-05T05:46:22;4.80;;;2.90;;
31764;SDS011;18338;53.240;8.798;2022-07-05T05:48:49;4.25;;;2.65;;
31764;SDS011;18338;53.240;8.798;2022-07-05T05:51:15;3.72;;;2.67;;
31764;SDS011;18338;53.240;8.798;2022-07-05T05:53:42;3.10;;;2.47;;
31764;SDS011;18338;53.240;8.798;2022-07-05T05:56:11;3.13;;;2.47;;
31764;SDS011;18338;53.240;8.798;2022-07-05T05:58:38;4.10;;;2.15;;
31764;SDS011;18338;53.240;8.798;2022-07-05T06:01:09;3.33;;;2.20;;
31764;SDS011;18338;53.240;8.798;2022-07-05T06:03:37;3.80;;;2.40;;
31764;SDS011;18338;53.240;8.798;2022-07-05T06:06:04;5.32;;;2.78;;
31764;SDS011;18338;53.240;8.798;2022-07-05T06:08:30;4.03;;;2.42;;
31764;SDS011;18338;53.240;8.798;2022-07-05T06:10:57;3.33;;;2.00;;
31764;SDS011;18338;53.240;8.798;2022-07-05T06:13:29;3.33;;;2.15;;
31764;SDS011;18338;53.240;8.798;2022-07-05T06:15:56;2.88;;;2.20;;
31764;SDS011;18338;53.240;8.798;2022-07-05T06:18:23;4.28;;;2.38;;
31764;SDS011;18338;53.240;8.798;2022-07-05T06:20:50;2.75;;;2.00;;
31764;SDS011;18338;53.240;8.798;2022-07-05T06:23:17;6.57;;;2.45;;
31764;SDS011;18338;53.240;8.798;2022-07-05T06:25:43;2.75;;;1.58;;
31764;SDS011;18338;53.240;8.798;2022-07-05T06:28:10;2.45;;;1.80;;
31764;SDS011;18338;53.240;8.798;2022-07-05T06:30:38;5.60;;;2.03;;
31764;SDS011;18338;53.240;8.798;2022-07-05T06:33:05;3.78;;;1.98;;
31764;SDS011;18338;53.240;8.798;2022-07-05T06:35:32;2.00;;;1.90;;
31764;SDS011;18338;53.240;8.798;2022-07-05T06:38:03;4.15;;;2.03;;
31764;SDS011;18338;53.240;8.798;2022-07-05T06:40:32;5.40;;;2.40;;
31764;SDS011;18338;53.240;8.798;2022-07-05T06:43:02;2.60;;;1.77;;
31764;SDS011;18338;53.240;8.798;2022-07-05T06:45:33;5.78;;;2.03;;
31764;SDS011;18338;53.240;8.798;2022-07-05T06:48:01;1.75;;;1.17;;
31764;SDS011;18338;53.240;8.798;2022-07-05T06:50:29;3.70;;;1.30;;
31764;SDS011;18338;53.240;8.798;2022-07-05T06:52:59;3.72;;;1.13;;
31764;SDS011;18338;53.240;8.798;2022-07-05T06:55:26;3.65;;;1.27;;
31764;SDS011;18338;53.240;8.798;2022-07-05T06:57:57;1.63;;;1.48;;
31764;SDS011;18338;53.240;8.798;2022-07-05T07:00:41;1.80;;;0.90;;
31764;SDS011;18338;53.240;8.798;2022-07-05T07:03:28;1.70;;;1.15;;
31764;SDS011;18338;53.240;8.798;2022-07-05T07:06:16;2.88;;;1.27;;
31764;SDS011;18338;53.240;8.798;2022-07-05T07:08:43;5.90;;;1.30;;
31764;SDS011;18338;53.240;8.798;2022-07-05T07:11:29;6.15;;;1.00;;
31764;SDS011;18338;53.240;8.798;2022-07-05T07:13:56;3.17;;;1.30;;
31764;SDS011;18338;53.240;8.798;2022-07-05T07:16:23;2.83;;;0.80;;
31764;SDS011;18338;53.240;8.798;2022-07-05T07:18:50;2.42;;;0.80;;
31764;SDS011;18338;53.240;8.798;2022-07-05T07:21:38;1.92;;;1.02;;
31764;SDS011;18338;53.240;8.798;2022-07-05T07:24:05;1.75;;;0.70;;
31764;SDS011;18338;53.240;8.798;2022-07-05T07:26:33;1.52;;;0.70;;
31764;SDS011;18338;53.240;8.798;2022-07-05T07:29:20;2.75;;;0.77;;
31764;SDS011;18338;53.240;8.798;2022-07-05T07:31:47;2.97;;;0.80;;
31764;SDS011;18338;53.240;8.798;2022-07-05T07:34:14;3.03;;;0.88;;
31764;SDS011;18338;53.240;8.798;2022-07-05T07:36:41;1.85;;;0.70;;
31764;SDS011;18338;53.240;8.798;2022-07-05T07:39:08;2.67;;;0.90;;
31764;SDS011;18338;53.240;8.798;2022-07-05T07:41:35;4.35;;;0.93;;
31764;SDS011;18338;53.240;8.798;2022-07-05T07:44:02;2.78;;;0.70;;
31764;SDS011;18338;53.240;8.798;2022-07-05T07:46:29;2.60;;;0.95;;
31764;SDS011;18338;53.240;8.798;2022-07-05T07:48:57;2.45;;;0.70;;
31764;SDS011;18338;53.240;8.798;2022-07-05T07:51:24;3.60;;;0.57;;
31764;SDS011;18338;53.240;8.798;2022-07-05T07:53:51;3.78;;;0.65;;
31764;SDS011;18338;53.240;8.798;2022-07-05T07:56:25;1.30;;;0.70;;
31764;SDS011;18338;53.240;8.798;2022-07-05T07:58:52;4.78;;;0.90;;
31764;SDS011;18338;53.240;8.798;2022-07-05T08:01:19;1.55;;;0.70;;
31764;SDS011;18338;53.240;8.798;2022-07-05T08:03:46;2.65;;;0.50;;
31764;SDS011;18338;53.240;8.798;2022-07-05T08:06:13;1.70;;;0.60;;
31764;SDS011;18338;53.240;8.798;2022-07-05T08:08:40;1.77;;;0.77;;
31764;SDS011;18338;53.240;8.798;2022-07-05T08:11:09;2.45;;;0.55;;
31764;SDS011;18338;53.240;8.798;2022-07-05T08:13:37;1.45;;;0.60;;
31764;SDS011;18338;53.240;8.798;2022-07-05T08:16:06;1.23;;;0.45;;
31764;SDS011;18338;53.240;8.798;2022-07-05T08:18:34;1.58;;;0.40;;
31764;SDS011;18338;53.240;8.798;2022-07-05T08:21:20;1.48;;;0.40;;
31764;SDS011;18338;53.240;8.798;2022-07-05T08:24:07;1.08;;;0.50;;
31764;SDS011;18338;53.240;8.798;2022-07-05T08:26:35;1.60;;;0.70;;
31764;SDS011;18338;53.240;8.798;2022-07-05T08:29:03;1.58;;;0.63;;
31764;SDS011;18338;53.240;8.798;2022-07-05T08:31:36;1.35;;;0.40;;
31764;SDS011;18338;53.240;8.798;2022-07-05T08:34:04;0.60;;;0.30;;
31764;SDS011;18338;53.240;8.798;2022-07-05T08:36:31;0.40;;;0.40;;
31764;SDS011;18338;53.240;8.798;2022-07-05T08:38:57;1.27;;;0.70;;
31764;SDS011;18338;53.240;8.798;2022-07-05T08:41:24;0.82;;;0.40;;
31764;SDS011;18338;53.240;8.798;2022-07-05T08:43:51;0.40;;;0.30;;
31764;SDS011;18338;53.240;8.798;2022-07-05T08:46:18;0.52;;;0.30;;
31764;SDS011;18338;53.240;8.798;2022-07-05T08:48:48;1.15;;;0.47;;
31764;SDS011;18338;53.240;8.798;2022-07-05T08:51:18;0.55;;;0.28;;
31764;SDS011;18338;53.240;8.798;2022-07-05T08:53:50;0.93;;;0.30;;
31764;SDS011;18338;53.240;8.798;2022-07-05T08:56:18;1.85;;;0.28;;
31764;SDS011;18338;53.240;8.798;2022-07-05T08:59:04;1.75;;;0.40;;
31764;SDS011;18338;53.240;8.798;2022-07-05T09:01:31;1.85;;;0.40;;
31764;SDS011;18338;53.240;8.798;2022-07-05T09:04:01;0.57;;;0.30;;
31764;SDS011;18338;53.240;8.798;2022-07-05T09:06:35;2.92;;;0.40;;
31764;SDS011;18338;53.240;8.798;2022-07-05T09:09:04;1.05;;;0.32;;
31764;SDS011;18338;53.240;8.798;2022-07-05T09:11:36;2.38;;;0.47;;
31764;SDS011;18338;53.240;8.798;2022-07-05T09:14:05;0.73;;;0.40;;
31764;SDS011;18338;53.240;8.798;2022-07-05T09:16:54;1.17;;;0.50;;
31764;SDS011;18338;53.240;8.798;2022-07-05T09:19:21;1.42;;;0.40;;
31764;SDS011;18338;53.240;8.798;2022-07-05T09:21:50;2.28;;;0.38;;
31764;SDS011;18338;53.240;8.798;2022-07-05T09:24:28;1.25;;;0.30;;
31764;SDS011;18338;53.240;8.798;2022-07-05T09:27:01;0.30;;;0.30;;
31764;SDS011;18338;53.240;8.798;2022-07-05T09:29:30;1.38;;;0.22;;
31764;SDS011;18338;53.240;8.798;2022-07-05T09:32:25;0.80;;;0.30;;
31764;SDS011;18338;53.240;8.798;2022-07-05T09:34:51;0.65;;;0.30;;
31764;SDS011;18338;53.240;8.798;2022-07-05T09:37:18;1.50;;;0.32;;
31764;SDS011;18338;53.240;8.798;2022-07-05T09:39:45;2.40;;;0.65;;
31764;SDS011;18338;53.240;8.798;2022-07-05T09:42:16;1.27;;;0.45;;
31764;SDS011;18338;53.240;8.798;2022-07-05T09:47:15;0.90;;;0.30;;
31764;SDS011;18338;53.240;8.798;2022-07-05T09:52:36;1.02;;;0.40;;
31764;SDS011;18338;53.240;8.798;2022-07-05T09:55:07;0.90;;;0.40;;
31764;SDS011;18338;53.240;8.798;2022-07-05T09:57:43;2.28;;;0.45;;
31764;SDS011;18338;53.240;8.798;2022-07-05T10:00:11;0.45;;;0.30;;
31764;SDS011;18338;53.240;8.798;2022-07-05T10:02:46;0.98;;;0.40;;
31764;SDS011;18338;53.240;8.798;2022-07-05T10:05:18;1.15;;;0.40;;
31764;SDS011;18338;53.240;8.798;2022-07-05T10:07:50;0.63;;;0.22;;
31764;SDS011;18338;53.240;8.798;2022-07-05T10:10:19;2.75;;;0.35;;
31764;SDS011;18338;53.240;8.798;2022-07-05T10:12:48;2.17;;;0.30;;
31764;SDS011;18338;53.240;8.798;2022-07-05T10:15:18;1.52;;;0.50;;
31764;SDS011;18338;53.240;8.798;2022-07-05T10:17:50;1.67;;;0.30;;
31764;SDS011;18338;53.240;8.798;2022-07-05T10:22:52;1.00;;;0.43;;
31764;SDS011;18338;53.240;8.798;2022-07-05T10:25:20;1.48;;;0.55;;
31764;SDS011;18338;53.240;8.798;2022-07-05T10:27:48;2.83;;;0.70;;
31764;SDS011;18338;53.240;8.798;2022-07-05T10:30:20;1.85;;;0.60;;
31764;SDS011;18338;53.240;8.798;2022-07-05T10:32:49;2.38;;;0.57;;
31764;SDS011;18338;53.240;8.798;2022-07-05T10:35:19;1.38;;;0.50;;
31764;SDS011;18338;53.240;8.798;2022-07-05T10:37:50;1.75;;;0.30;;
31764;SDS011;18338;53.240;8.798;2022-07-05T10:40:17;2.00;;;0.50;;
31764;SDS011;18338;53.240;8.798;2022-07-05T10:42:48;1.30;;;0.50;;
31764;SDS011;18338;53.240;8.798;2022-07-05T10:50:47;1.00;;;0.52;;
31764;SDS011;18338;53.240;8.798;2022-07-05T11:01:50;3.85;;;0.80;;
31764;SDS011;18338;53.240;8.798;2022-07-05T11:03:53;1.48;;;0.50;;
31764;SDS011;18338;53.240;8.798;2022-07-05T11:06:27;2.40;;;0.55;;
31764;SDS011;18338;53.240;8.798;2022-07-05T11:09:13;4.30;;;0.47;;
31764;SDS011;18338;53.240;8.798;2022-07-05T11:11:43;1.00;;;0.70;;
31764;SDS011;18338;53.240;8.798;2022-07-05T11:14:35;2.83;;;0.93;;
31764;SDS011;18338;53.240;8.798;2022-07-05T11:20:08;0.70;;;0.40;;
31764;SDS011;18338;53.240;8.798;2022-07-05T11:22:42;1.33;;;0.50;;
31764;SDS011;18338;53.240;8.798;2022-07-05T11:25:30;2.90;;;0.60;;
31764;SDS011;18338;53.240;8.798;2022-07-05T11:28:00;3.17;;;0.82;;
31764;SDS011;18338;53.240;8.798;2022-07-05T11:30:28;1.60;;;0.50;;
31764;SDS011;18338;53.240;8.798;2022-07-05T11:32:58;1.38;;;0.60;;
31764;SDS011;18338;53.240;8.798;2022-07-05T11:35:30;1.15;;;0.70;;
31764;SDS011;18338;53.240;8.798;2022-07-05T11:38:04;2.60;;;0.60;;
31764;SDS011;18338;53.240;8.798;2022-07-05T11:40:53;2.83;;;0.50;;
31764;SDS011;18338;53.240;8.798;2022-07-05T11:43:27;2.25;;;0.50;;
31764;SDS011;18338;53.240;8.798;2022-07-05T11:45:56;1.77;;;0.70;;
31764;SDS011;18338;53.240;8.798;2022-07-05T11:48:27;2.88;;;0.50;;
31764;SDS011;18338;53.240;8.798;2022-07-05T11:50:55;1.63;;;0.50;;
31764;SDS011;18338;53.240;8.798;2022-07-05T11:53:25;1.33;;;0.70;;
31764;SDS011;18338;53.240;8.798;2022-07-05T11:56:16;1.63;;;0.45;;
31764;SDS011;18338;53.240;8.798;2022-07-05T11:58:44;0.82;;;0.40;;
31764;SDS011;18338;53.240;8.798;2022-07-05T12:01:11;0.90;;;0.30;;
31764;SDS011;18338;53.240;8.798;2022-07-05T12:03:38;1.02;;;0.50;;
31764;SDS011;18338;53.240;8.798;2022-07-05T12:06:11;0.88;;;0.60;;
31764;SDS011;18338;53.240;8.798;2022-07-05T12:08:38;1.38;;;0.50;;
31764;SDS011;18338;53.240;8.798;2022-07-05T12:11:05;2.92;;;0.50;;
31764;SDS011;18338;53.240;8.798;2022-07-05T12:13:54;1.63;;;0.52;;
31764;SDS011;18338;53.240;8.798;2022-07-05T12:16:21;1.50;;;0.60;;
31764;SDS011;18338;53.240;8.798;2022-07-05T12:18:52;0.68;;;0.43;;
31764;SDS011;18338;53.240;8.798;2022-07-05T12:21:25;1.90;;;0.70;;
31764;SDS011;18338;53.240;8.798;2022-07-05T12:23:52;1.35;;;0.70;;
31764;SDS011;18338;53.240;8.798;2022-07-05T12:26:19;3.22;;;0.77;;
31764;SDS011;18338;53.240;8.798;2022-07-05T12:28:48;1.85;;;0.40;;
31764;SDS011;18338;53.240;8.798;2022-07-05T12:31:16;1.15;;;0.50;;
31764;SDS011;18338;53.240;8.798;2022-07-05T12:33:43;2.80;;;0.70;;
31764;SDS011;18338;53.240;8.798;2022-07-05T12:36:11;0.35;;;0.35;;
31764;SDS011;18338;53.240;8.798;2022-07-05T12:38:39;1.42;;;0.40;;
31764;SDS011;18338;53.240;8.798;2022-07-05T12:41:07;1.40;;;0.40;;
31764;SDS011;18338;53.240;8.798;2022-07-05T12:43:47;1.10;;;0.50;;
31764;SDS011;18338;53.240;8.798;2022-07-05T12:46:18;2.50;;;0.60;;
31764;SDS011;18338;53.240;8.798;2022-07-05T12:48:50;1.48;;;0.57;;
31764;SDS011;18338;53.240;8.798;2022-07-05T12:51:30;0.98;;;0.50;;
31764;SDS011;18338;53.240;8.798;2022-07-05T12:53:59;2.03;;;0.43;;
31764;SDS011;18338;53.240;8.798;2022-07-05T12:56:48;2.10;;;0.50;;
31764;SDS011;18338;53.240;8.798;2022-07-05T12:59:59;1.55;;;0.65;;
31764;SDS011;18338;53.240;8.798;2022-07-05T13:02:35;2.90;;;0.60;;
31764;SDS011;18338;53.240;8.798;2022-07-05T13:05:08;2.75;;;0.57;;
31764;SDS011;18338;53.240;8.798;2022-07-05T13:07:48;1.95;;;0.70;;
31764;SDS011;18338;53.240;8.798;2022-07-05T13:10:20;0.90;;;0.50;;
31764;SDS011;18338;53.240;8.798;2022-07-05T13:12:49;1.95;;;0.60;;
31764;SDS011;18338;53.240;8.798;2022-07-05T13:15:16;2.50;;;0.65;;
31764;SDS011;18338;53.240;8.798;2022-07-05T13:17:44;2.28;;;0.60;;
31764;SDS011;18338;53.240;8.798;2022-07-05T13:20:15;2.88;;;0.60;;
31764;SDS011;18338;53.240;8.798;2022-07-05T13:22:44;1.92;;;0.70;;
31764;SDS011;18338;53.240;8.798;2022-07-05T13:25:11;0.75;;;0.50;;
31764;SDS011;18338;53.240;8.798;2022-07-05T13:27:39;3.33;;;0.50;;
31764;SDS011;18338;53.240;8.798;2022-07-05T13:30:06;1.88;;;0.52;;
31764;SDS011;18338;53.240;8.798;2022-07-05T13:32:34;2.10;;;0.73;;
31764;SDS011;18338;53.240;8.798;2022-07-05T13:35:00;1.85;;;0.85;;
31764;SDS011;18338;53.240;8.798;2022-07-05T13:37:27;1.70;;;0.60;;
31764;SDS011;18338;53.240;8.798;2022-07-05T13:39:54;2.53;;;0.70;;
31764;SDS011;18338;53.240;8.798;2022-07-05T13:42:21;1.30;;;0.50;;
31764;SDS011;18338;53.240;8.798;2022-07-05T13:44:48;2.30;;;0.63;;
31764;SDS011;18338;53.240;8.798;2022-07-05T13:47:14;2.83;;;0.60;;
31764;SDS011;18338;53.240;8.798;2022-07-05T13:49:41;2.40;;;0.60;;
31764;SDS011;18338;53.240;8.798;2022-07-05T13:52:08;3.42;;;0.88;;
31764;SDS011;18338;53.240;8.798;2022-07-05T13:54:35;1.60;;;0.65;;
31764;SDS011;18338;53.240;8.798;2022-07-05T13:57:05;2.80;;;0.60;;
31764;SDS011;18338;53.240;8.798;2022-07-05T13:59:32;4.45;;;0.70;;
31764;SDS011;18338;53.240;8.798;2022-07-05T14:02:02;1.63;;;0.50;;
31764;SDS011;18338;53.240;8.798;2022-07-05T14:04:29;2.97;;;0.70;;
31764;SDS011;18338;53.240;8.798;2022-07-05T14:06:57;1.40;;;0.63;;
31764;SDS011;18338;53.240;8.798;2022-07-05T14:09:25;3.20;;;0.93;;
31764;SDS011;18338;53.240;8.798;2022-07-05T14:11:54;3.50;;;0.60;;
31764;SDS011;18338;53.240;8.798;2022-07-05T14:14:21;1.05;;;0.57;;
31764;SDS011;18338;53.240;8.798;2022-07-05T14:16:48;2.22;;;0.50;;
31764;SDS011;18338;53.240;8.798;2022-07-05T14:19:15;1.98;;;0.52;;
31764;SDS011;18338;53.240;8.798;2022-07-05T14:21:42;3.22;;;0.52;;
31764;SDS011;18338;53.240;8.798;2022-07-05T14:24:15;2.45;;;0.50;;
31764;SDS011;18338;53.240;8.798;2022-07-05T14:26:42;1.40;;;0.60;;
31764;SDS011;18338;53.240;8.798;2022-07-05T14:29:09;3.13;;;0.60;;
31764;SDS011;18338;53.240;8.798;2022-07-05T14:31:36;2.95;;;0.40;;
31764;SDS011;18338;53.240;8.798;2022-07-05T14:34:04;1.85;;;0.57;;
31764;SDS011;18338;53.240;8.798;2022-07-05T14:36:30;2.20;;;0.50;;
31764;SDS011;18338;53.240;8.798;2022-07-05T14:38:57;3.40;;;1.13;;
31764;SDS011;18338;53.240;8.798;2022-07-05T14:41:27;3.33;;;0.70;;
31764;SDS011;18338;53.240;8.798;2022-07-05T14:43:54;1.65;;;0.50;;
31764;SDS011;18338;53.240;8.798;2022-07-05T14:46:22;4.28;;;1.00;;
31764;SDS011;18338;53.240;8.798;2022-07-05T14:48:49;1.75;;;0.50;;
31764;SDS011;18338;53.240;8.798;2022-07-05T14:51:16;2.95;;;0.60;;
31764;SDS011;18338;53.240;8.798;2022-07-05T14:53:42;2.38;;;0.60;;
31764;SDS011;18338;53.240;8.798;2022-07-05T14:56:13;4.50;;;0.88;;
31764;SDS011;18338;53.240;8.798;2022-07-05T14:58:41;3.33;;;0.80;;
31764;SDS011;18338;53.240;8.798;2022-07-05T15:01:07;4.57;;;0.68;;
31764;SDS011;18338;53.240;8.798;2022-07-05T15:03:36;2.08;;;0.70;;
31764;SDS011;18338;53.240;8.798;2022-07-05T15:06:02;3.17;;;0.73;;
31764;SDS011;18338;53.240;8.798;2022-07-05T15:08:30;3.53;;;0.88;;
31764;SDS011;18338;53.240;8.798;2022-07-05T15:10:57;2.53;;;0.63;;
31764;SDS011;18338;53.240;8.798;2022-07-05T15:13:25;3.63;;;1.00;;
31764;SDS011;18338;53.240;8.798;2022-07-05T15:15:53;3.30;;;0.70;;
31764;SDS011;18338;53.240;8.798;2022-07-05T15:18:20;1.65;;;0.60;;
31764;SDS011;18338;53.240;8.798;2022-07-05T15:20:47;3.15;;;0.77;;
31764;SDS011;18338;53.240;8.798;2022-07-05T15:23:14;2.83;;;1.00;;
31764;SDS011;18338;53.240;8.798;2022-07-05T15:25:41;3.28;;;0.60;;